Time;durP1;ratioP1;P1;durP2;ratioP2;P2;SDS_P1;SDS_P2;PMS_P1;PMS_P2;Temp;Humidity;BMP_temperature;BMP_pressure;BME280_temperature;BME280_humidity;BME280_pressure;Samples;Min_cycle;Max_cycle;Signal;HPM_P1;HPM_P2
2022/04/19 00:04:30;;;;;;;6.23;3.90;;;6.10;75.30;;;4.28;64.99;99781.81;10332031;28;96615;-81
2022/04/19 00:09:33;;;;;;;8.00;4.30;;;6.00;76.10;;;4.18;65.22;99778.34;10325696;28;96707;-80
2022/04/19 00:14:36;;;;;;;6.50;4.27;;;6.00;76.60;;;4.13;65.83;99762.13;10327156;28;97582;-80
2022/04/19 00:19:39;;;;;;;8.17;4.33;;;5.90;76.90;;;4.05;66.48;99763.81;10354640;28;96517;-80
2022/04/19 00:24:43;;;;;;;5.83;4.00;;;5.80;77.10;;;3.99;66.78;99758.13;10331265;28;96694;-80
2022/04/19 00:29:47;;;;;;;7.60;4.00;;;5.70;77.70;;;3.98;66.93;99756.47;10316499;28;98509;-80
2022/04/19 00:34:51;;;;;;;10.27;4.80;;;5.70;79.50;;;3.96;67.02;99745.25;10339356;28;97213;-80
2022/04/19 00:39:57;;;;;;;8.87;4.63;;;5.60;80.90;;;3.93;66.90;99742.06;10325377;28;96409;-80
2022/04/19 00:45:06;;;;;;;5.70;4.10;;;5.60;80.60;;;3.86;67.47;99739.16;10319782;28;96664;-80
2022/04/19 00:50:09;;;;;;;8.57;4.50;;;5.60;81.20;;;3.82;67.73;99732.50;10308773;28;96423;-79
2022/04/19 00:55:13;;;;;;;5.83;4.13;;;5.50;83.00;;;3.76;67.77;99728.63;10314304;28;96562;-80
2022/04/19 01:00:17;;;;;;;6.40;4.20;;;5.50;84.40;;;3.69;68.27;99724.88;10308087;28;97322;-81
2022/04/19 01:05:20;;;;;;;6.70;4.17;;;5.40;83.60;;;3.66;68.66;99721.69;10359102;28;96652;-81
2022/04/19 01:10:23;;;;;;;6.77;4.47;;;5.40;86.00;;;3.61;68.99;99718.66;10313413;28;96766;-81
2022/04/19 01:15:26;;;;;;;7.13;4.40;;;5.40;86.40;;;3.59;69.27;99718.75;10314746;28;96647;-81
2022/04/19 01:20:29;;;;;;;7.40;4.57;;;5.30;86.80;;;3.59;69.39;99712.69;10329019;28;97321;-81
2022/04/19 01:25:32;;;;;;;5.50;4.00;;;5.30;88.10;;;3.57;69.36;99712.00;10293618;28;96400;-81
2022/04/19 01:30:38;;;;;;;8.37;4.37;;;5.30;88.40;;;3.58;69.51;99719.72;10304606;28;97399;-81
2022/04/19 01:35:41;;;;;;;6.53;4.47;;;5.30;89.40;;;3.56;69.72;99715.59;10354144;28;96650;-81
2022/04/19 01:40:44;;;;;;;6.90;4.13;;;5.30;90.40;;;3.57;69.94;99706.72;10329757;28;96597;-80
2022/04/19 01:45:48;;;;;;;9.57;5.07;;;5.30;90.80;;;3.57;69.78;99712.00;10318327;28;96348;-81
2022/04/19 01:50:51;;;;;;;6.93;4.20;;;5.30;90.70;;;3.56;70.11;99705.06;10371076;28;96652;-81
2022/04/19 01:55:54;;;;;;;8.17;4.63;;;5.30;90.90;;;3.55;70.45;99713.94;10342057;28;96455;-81
2022/04/19 02:00:57;;;;;;;8.20;4.97;;;5.30;91.50;;;3.53;70.71;99700.06;10346438;28;96523;-81
2022/04/19 02:06:01;;;;;;;7.40;4.67;;;5.30;92.50;;;3.50;71.00;99709.06;10353625;28;96915;-81
2022/04/19 02:11:05;;;;;;;8.20;4.30;;;5.20;93.70;;;3.46;70.97;99700.63;10327833;28;96594;-81
2022/04/19 02:16:09;;;;;;;7.73;5.47;;;5.20;93.30;;;3.45;71.77;99698.13;10321566;28;98256;-81
2022/04/19 02:21:12;;;;;;;6.73;4.63;;;5.20;95.30;;;3.39;72.20;99696.88;10346271;28;97481;-81
2022/04/19 02:26:15;;;;;;;8.93;4.83;;;5.10;95.40;;;3.34;71.29;99700.88;10380574;28;96614;-81
2022/04/19 02:31:18;;;;;;;7.93;5.20;;;5.10;94.00;;;3.25;71.73;99699.06;10338839;28;96676;-79
2022/04/19 02:36:21;;;;;;;8.57;5.20;;;5.00;94.60;;;3.13;71.76;99693.91;10341906;28;96333;-81
2022/04/19 02:41:25;;;;;;;7.93;5.53;;;4.90;95.50;;;3.07;72.05;99694.44;10319040;28;96684;-82
2022/04/19 02:46:29;;;;;;;6.53;4.33;;;4.80;95.20;;;3.02;72.44;99683.47;10336688;28;96444;-80
2022/04/19 02:51:32;;;;;;;9.37;5.83;;;4.80;95.90;;;3.06;73.36;99692.78;10304605;28;96513;-80
2022/04/19 02:56:35;;;;;;;8.03;5.50;;;4.80;97.30;;;3.11;72.82;99693.19;10304067;28;97926;-80
2022/04/19 03:01:39;;;;;;;10.97;5.33;;;4.80;96.40;;;3.15;73.45;99691.13;10357473;28;96501;-80
2022/04/19 03:06:42;;;;;;;9.00;5.07;;;4.80;97.10;;;3.18;73.08;99690.88;10357554;28;96592;-80
2022/04/19 03:11:45;;;;;;;9.17;5.97;;;4.90;97.00;;;3.25;73.63;99686.75;10331516;28;96667;-80
2022/04/19 03:16:48;;;;;;;9.90;5.53;;;4.90;97.50;;;3.36;73.44;99681.41;10363722;28;96415;-79
2022/04/19 03:21:51;;;;;;;8.93;6.27;;;5.00;96.80;;;3.49;72.86;99679.34;10374660;28;96537;-80
2022/04/19 03:32:16;;;;;;;;;;;5.20;96.80;;;3.64;72.65;99676.31;10349044;28;96541;-80
2022/04/19 03:37:19;;;;;;;9.27;4.93;;;5.30;97.80;;;3.68;72.09;99672.47;10304863;28;96707;-80
2022/04/19 03:42:24;;;;;;;7.23;4.50;;;5.30;96.50;;;3.66;72.01;99679.66;10297012;28;96390;-80
2022/04/19 03:47:27;;;;;;;7.87;5.30;;;5.30;98.40;;;3.58;72.02;99671.59;10344334;28;96503;-80
2022/04/19 03:52:31;;;;;;;8.97;5.03;;;5.30;97.40;;;3.52;72.18;99667.72;10339545;28;97553;-80
2022/04/19 03:57:34;;;;;;;9.17;5.03;;;5.20;97.20;;;3.49;72.08;99668.00;10297954;28;98321;-79
2022/04/19 04:02:37;;;;;;;9.53;5.47;;;5.20;96.90;;;3.51;72.27;99678.38;10354437;28;96912;-79
2022/04/19 04:07:40;;;;;;;9.50;5.70;;;5.20;98.00;;;3.55;72.38;99670.09;10323170;28;96774;-85
2022/04/19 04:12:43;;;;;;;13.23;6.20;;;5.20;97.70;;;3.59;72.40;99673.25;10324480;28;96760;-84
2022/04/19 04:17:46;;;;;;;9.10;5.50;;;5.20;97.70;;;3.63;72.65;99680.75;10333828;28;96469;-85
2022/04/19 04:22:49;;;;;;;7.83;4.97;;;5.30;97.80;;;3.67;72.31;99681.31;10353460;28;96963;-84
2022/04/19 04:27:54;;;;;;;7.17;4.60;;;5.30;97.90;;;3.70;72.45;99678.41;10326452;28;96565;-84
2022/04/19 04:32:57;;;;;;;10.83;5.50;;;5.30;97.70;;;3.75;72.28;99690.16;10305347;28;97174;-84
2022/04/19 04:38:00;;;;;;;14.00;6.20;;;5.40;98.80;;;3.78;72.79;99691.72;10353118;28;96605;-84
2022/04/19 04:43:04;;;;;;;15.20;6.63;;;5.40;98.20;;;3.88;72.67;99692.53;10321322;28;96494;-85
2022/04/19 04:53:30;;;;;;;11.70;6.13;;;5.50;98.70;;;4.08;72.70;99688.13;10348938;28;96597;-83
2022/04/19 04:58:33;;;;;;;13.80;5.97;;;5.60;98.60;;;4.13;72.82;99687.69;10316712;28;97765;-84
2022/04/19 05:03:37;;;;;;;11.20;6.37;;;5.70;98.00;;;4.22;72.73;99695.59;10321766;28;96528;-84
2022/04/19 05:08:40;;;;;;;13.40;5.83;;;5.80;98.80;;;4.33;72.74;99688.53;10309623;28;97459;-85
2022/04/19 05:13:43;;;;;;;11.43;6.67;;;5.90;98.80;;;4.42;72.26;99698.19;10298980;28;96474;-84
2022/04/19 05:18:46;;;;;;;11.33;5.83;;;5.90;98.70;;;4.53;72.03;99687.50;10315168;28;98280;-85
2022/04/19 05:23:48;;;;;;;10.93;5.83;;;6.00;98.70;;;4.65;70.90;99690.81;10303963;28;96653;-85
2022/04/19 05:28:51;;;;;;;9.53;5.30;;;6.10;97.70;;;4.71;69.93;99692.88;10314679;28;96552;-84
2022/04/19 05:33:58;;;;;;;8.67;5.40;;;6.20;96.90;;;4.81;68.87;99694.50;10314621;28;97800;-84
2022/04/19 05:39:01;;;;;;;8.57;5.07;;;6.20;96.20;;;4.98;68.39;99685.03;10338862;28;96992;-85
2022/04/19 05:44:04;;;;;;;9.57;5.33;;;6.40;95.80;;;5.19;67.45;99684.78;10330989;28;96753;-84
2022/04/19 05:49:07;;;;;;;12.70;7.67;;;6.60;95.20;;;5.35;66.27;99685.00;10316728;28;98079;-84
2022/04/19 05:54:10;;;;;;;9.77;5.67;;;6.70;94.30;;;5.63;65.92;99677.88;10305150;28;98510;-84
2022/04/19 05:59:13;;;;;;;9.97;4.60;;;7.00;94.30;;;5.93;65.00;99681.16;10300819;28;96774;-84
2022/04/19 06:09:37;;;;;;;9.53;4.40;;;7.50;92.80;;;6.36;61.83;99669.84;10302341;28;96578;-85
2022/04/19 06:14:40;;;;;;;10.70;4.60;;;7.70;91.80;;;6.57;61.83;99669.50;10318430;28;97045;-84
2022/04/19 06:19:44;;;;;;;7.80;4.37;;;7.90;91.20;;;6.73;61.00;99670.59;10311887;28;96347;-85
2022/04/19 06:24:47;;;;;;;6.40;4.23;;;8.10;90.20;;;7.01;61.04;99666.75;10331676;28;96588;-85
2022/04/19 06:29:57;;;;;;;9.63;3.57;;;8.30;89.80;;;7.30;58.88;99668.22;10297876;28;96621;-85
2022/04/19 06:35:00;;;;;;;6.90;4.33;;;8.60;87.20;;;7.53;57.31;99671.09;10291330;28;96546;-85
2022/04/19 06:40:06;;;;;;;6.40;4.30;;;8.80;83.30;;;7.67;56.34;99663.34;10291122;28;96385;-85
2022/04/19 06:45:11;;;;;;;5.30;3.67;;;9.00;81.20;;;7.87;55.43;99657.78;10313464;28;96879;-85
2022/04/19 06:50:14;;;;;;;6.00;4.00;;;9.20;79.30;;;8.14;55.02;99664.56;10297618;28;96467;-85
2022/04/19 06:55:17;;;;;;;7.93;4.00;;;9.40;79.20;;;8.32;53.40;99670.53;10292376;28;96584;-85
2022/04/19 07:00:21;;;;;;;6.43;4.07;;;9.60;76.30;;;8.42;51.48;99657.97;10305448;28;97449;-85
2022/04/19 07:05:25;;;;;;;5.93;3.63;;;9.70;74.20;;;8.54;51.61;99653.16;10280018;28;98287;-84
2022/04/19 07:10:27;;;;;;;4.43;3.27;;;9.80;73.30;;;8.65;50.42;99654.66;10292261;28;96594;-85
2022/04/19 07:15:30;;;;;;;17.27;5.60;;;9.90;69.90;;;8.61;49.91;99661.28;10321435;28;98462;-85
2022/04/19 07:31:16;;;;;;;;;;;10.20;68.40;;;9.52;47.34;99655.47;10296218;28;96576;-84
2022/04/19 07:36:20;;;;;;;7.80;3.87;;;10.30;66.60;;;10.34;46.11;99653.94;10296391;28;96490;-85
2022/04/19 07:41:24;;;;;;;6.17;3.70;;;10.50;66.20;;;11.06;44.69;99645.38;10302158;28;97112;-84
2022/04/19 07:46:27;;;;;;;4.67;3.33;;;10.90;65.60;;;12.04;43.50;99644.88;10296521;28;98611;-85
2022/04/19 07:51:30;;;;;;;4.37;2.90;;;11.40;65.70;;;12.99;40.90;99635.53;10295218;28;96490;-85
2022/04/19 07:56:33;;;;;;;5.30;3.00;;;11.90;63.20;;;13.43;38.16;99626.31;10298812;28;96586;-85
2022/04/19 08:01:36;;;;;;;4.70;3.47;;;12.40;61.10;;;13.13;38.69;99626.59;10304692;28;96555;-85
2022/04/19 08:06:40;;;;;;;5.40;3.77;;;12.60;59.50;;;12.85;39.19;99631.16;10306018;28;96453;-85
2022/04/19 08:11:43;;;;;;;6.63;4.20;;;12.80;59.10;;;12.31;38.84;99637.94;10294044;28;96509;-85
2022/04/19 08:16:46;;;;;;;4.47;3.23;;;12.90;57.60;;;12.00;40.05;99643.63;10294510;28;96602;-85
2022/04/19 08:21:51;;;;;;;5.13;2.90;;;12.70;57.20;;;11.65;40.42;99644.47;10302482;28;96601;-85
2022/04/19 08:26:54;;;;;;;4.20;3.27;;;12.60;56.40;;;11.51;41.04;99646.13;10325132;28;96596;-85
2022/04/19 08:31:57;;;;;;;5.90;3.87;;;12.60;56.60;;;11.52;41.12;99635.31;10294824;28;96417;-85
2022/04/19 08:37:02;;;;;;;5.67;3.20;;;12.80;56.70;;;11.70;41.13;99634.91;10295740;28;96420;-84
2022/04/19 08:42:06;;;;;;;4.77;3.70;;;12.90;56.50;;;11.97;40.22;99624.53;10294535;28;97090;-85
2022/04/19 08:47:09;;;;;;;5.63;3.40;;;13.20;55.90;;;11.97;40.37;99620.03;10294528;28;96351;-85
2022/04/19 08:52:14;;;;;;;5.30;3.53;;;13.20;55.00;;;12.30;40.26;99619.50;10291731;28;96457;-85
2022/04/19 08:57:29;;;;;;;5.57;3.63;;;13.50;54.70;;;12.60;39.95;99612.13;10321193;28;96604;-85
2022/04/19 09:02:37;;;;;;;5.10;3.00;;;13.70;54.50;;;12.92;38.64;99609.84;10295636;28;96331;-85
2022/04/19 09:07:41;;;;;;;7.53;3.50;;;13.80;53.80;;;12.71;36.89;99606.22;10293410;28;98648;-85
2022/04/19 09:12:56;;;;;;;3.83;2.72;;;13.70;51.80;;;12.51;38.63;99597.31;10277522;28;96667;-85
2022/04/19 09:18:00;;;;;;;5.63;3.70;;;13.60;52.40;;;12.05;37.95;99601.28;10337175;28;96465;-86
2022/04/19 09:23:09;;;;;;;5.60;3.30;;;13.50;51.80;;;11.76;39.99;99607.53;10338918;28;96903;-85
2022/04/19 09:28:30;;;;;;;4.37;3.07;;;13.20;53.00;;;11.75;40.38;99607.69;10329456;28;96597;-85
2022/04/19 09:33:33;;;;;;;5.10;3.13;;;13.10;53.50;;;11.57;39.93;99600.13;10292518;28;96463;-85
2022/04/19 09:38:40;;;;;;;4.87;3.37;;;13.00;53.20;;;11.35;40.30;99601.16;10293145;28;96397;-85
2022/04/19 09:43:43;;;;;;;5.67;3.63;;;12.80;53.50;;;11.13;39.49;99605.56;10320253;28;98138;-84
2022/04/19 09:48:47;;;;;;;4.63;3.00;;;12.60;52.70;;;11.04;40.06;99604.88;10333826;28;96447;-85
2022/04/19 09:53:50;;;;;;;5.17;3.53;;;12.40;53.00;;;10.81;40.10;99599.66;10332613;28;96401;-85
2022/04/19 09:58:53;;;;;;;5.43;3.13;;;12.30;53.00;;;10.60;40.39;99600.38;10302514;28;96592;-85
2022/04/19 10:09:21;;;;;;;5.63;3.50;;;11.90;53.60;;;10.35;40.97;99601.63;10292134;28;96429;-85
2022/04/19 10:14:24;;;;;;;4.73;3.10;;;11.80;53.40;;;10.17;40.83;99602.75;10320887;28;98680;-85
2022/04/19 10:19:28;;;;;;;15.50;10.03;;;11.60;53.20;;;10.28;41.76;99598.06;10302953;28;96463;-85
2022/04/19 10:24:52;;;;;;;7.43;2.93;;;11.70;53.70;;;10.25;41.61;99601.88;10331109;28;96668;-85
2022/04/19 10:29:55;;;;;;;5.03;3.67;;;11.70;53.90;;;10.12;43.80;99610.44;10332409;28;96859;-85
2022/04/19 10:35:00;;;;;;;6.40;4.00;;;11.60;56.30;;;9.72;46.65;99605.47;10331287;28;96357;-85
2022/04/19 10:40:06;;;;;;;43.80;28.23;;;11.20;57.60;;;9.43;45.89;99595.53;10328591;28;96593;-85
2022/04/19 10:45:12;;;;;;;10.10;6.37;;;10.90;57.90;;;9.38;47.37;99588.91;10335389;28;96489;-85
2022/04/19 10:50:25;;;;;;;5.80;4.57;;;10.80;59.00;;;9.33;46.75;99588.63;10310209;28;97060;-86
2022/04/19 10:55:34;;;;;;;5.90;3.90;;;10.70;59.00;;;9.01;49.44;99586.97;10313366;28;96595;-85
2022/04/19 11:01:02;;;;;;;8.23;4.13;;;10.50;63.90;;;8.74;50.75;99595.34;10300633;28;98317;-87
2022/04/19 11:06:33;;;;;;;95.20;25.57;;;10.10;64.60;;;8.69;52.40;99606.44;10297036;28;96549;-87
2022/04/19 11:12:08;;;;;;;6.50;3.90;;;10.00;65.80;;;8.68;51.67;99604.78;10312166;28;96598;-86
2022/04/19 11:17:22;;;;;;;8.43;4.30;;;10.00;65.50;;;8.75;51.88;99608.41;10297786;28;96596;-85
2022/04/19 11:22:47;;;;;;;4.97;3.50;;;10.10;65.90;;;8.89;51.81;99609.53;10318660;28;96497;-87
2022/04/19 11:27:54;;;;;;;6.10;3.93;;;10.10;65.80;;;9.26;50.38;99608.88;10337169;28;96535;-87
2022/04/19 11:32:58;;;;;;;4.03;3.20;;;10.40;64.30;;;9.70;49.38;99602.97;10307578;28;96412;-87
2022/04/19 11:38:10;;;;;;;5.17;3.50;;;10.80;63.40;;;10.08;47.55;99609.16;10297559;28;97362;-87
2022/04/19 11:48:41;;;;;;;;;;;11.20;60.20;;;10.07;46.43;99627.91;10339605;28;96661;-87
2022/04/19 11:53:46;;;;;;;5.53;4.10;;;11.20;59.90;;;10.01;47.25;99615.34;10335867;28;96703;-87
2022/04/19 11:58:51;;;;;;;4.00;2.93;;;11.20;60.90;;;10.07;47.42;99615.44;10299399;28;96655;-87
2022/04/19 12:03:55;;;;;;;5.10;3.30;;;11.30;61.60;;;10.19;47.35;99615.84;10298310;28;96439;-87
2022/04/19 12:08:58;;;;;;;6.20;3.07;;;11.30;61.20;;;10.25;47.38;99612.50;10330630;28;96977;-86
2022/04/19 12:14:03;;;;;;;5.70;3.40;;;11.50;61.40;;;10.41;47.03;99607.03;10338510;28;96376;-87
2022/04/19 12:19:12;;;;;;;4.80;3.00;;;11.60;61.20;;;10.61;47.25;99614.47;10331665;28;96512;-87
2022/04/19 12:24:28;;;;;;;5.43;3.53;;;11.80;61.20;;;10.48;47.72;99614.28;10322020;28;97829;-87
2022/04/19 12:29:35;;;;;;;6.23;3.80;;;11.70;61.60;;;10.22;48.56;99622.66;10336565;28;96322;-86
2022/04/19 12:34:39;;;;;;;6.30;3.67;;;11.60;62.30;;;10.01;50.10;99620.66;10334657;28;96520;-87
2022/04/19 12:39:58;;;;;;;5.10;3.80;;;11.40;63.10;;;9.83;50.69;99624.41;10327351;28;96397;-87
2022/04/19 12:45:11;;;;;;;4.90;3.60;;;11.30;64.30;;;9.66;51.41;99630.88;10335530;28;96470;-86
2022/04/19 12:50:22;;;;;;;3.63;3.10;;;11.10;64.90;;;9.53;51.82;99631.41;10296405;28;96741;-87
2022/04/19 12:55:29;;;;;;;6.13;3.67;;;11.00;64.90;;;9.29;52.59;99631.56;10308093;28;96520;-87
2022/04/19 13:00:32;;;;;;;6.17;4.20;;;10.80;65.60;;;9.22;54.34;99627.94;10337471;28;96469;-87
2022/04/19 13:16:19;;;;;;;5.70;3.92;;;10.80;68.60;;;9.35;53.79;99622.91;10331441;28;96720;-87
2022/04/19 13:21:24;;;;;;;48.97;21.87;;;10.80;66.90;;;9.38;53.59;99619.91;10307821;28;96499;-88
2022/04/19 13:26:38;;;;;;;63.23;40.20;;;10.80;67.10;;;9.34;52.80;99623.91;10342015;28;97202;-86
2022/04/19 13:31:43;;;;;;;12.97;7.37;;;10.80;66.50;;;9.25;52.81;99632.91;10336471;28;98976;-88
2022/04/19 13:36:46;;;;;;;8.93;5.47;;;10.70;66.60;;;9.21;53.51;99624.47;10362917;28;97586;-88
2022/04/19 13:41:49;;;;;;;7.40;4.30;;;10.60;67.20;;;9.22;53.75;99623.47;10347958;28;98435;-89
2022/04/19 13:46:59;;;;;;;5.80;3.97;;;10.60;67.40;;;9.33;53.34;99623.09;10343065;28;96534;-88
2022/04/19 13:52:08;;;;;;;8.90;3.90;;;10.70;67.20;;;9.38;53.37;99620.75;10338664;28;96471;-89
2022/04/19 13:57:11;;;;;;;9.20;4.40;;;10.80;67.50;;;9.48;53.84;99617.88;10326357;28;98387;-88
2022/04/19 14:02:15;;;;;;;5.70;3.97;;;10.80;67.80;;;9.55;53.03;99623.31;10301314;28;96570;-88
2022/04/19 14:07:18;;;;;;;5.97;4.40;;;10.90;67.50;;;9.62;52.67;99624.25;10312357;28;96672;-88
2022/04/19 14:12:21;;;;;;;4.43;3.63;;;10.90;67.30;;;9.85;52.61;99625.09;10303634;28;96756;-88
2022/04/19 14:17:25;;;;;;;4.57;3.57;;;11.10;67.20;;;9.98;51.31;99618.38;10328916;28;96740;-87
2022/04/19 14:22:28;;;;;;;5.20;3.83;;;11.30;66.30;;;10.05;50.79;99621.94;10331141;28;96573;-87
2022/04/19 14:27:30;;;;;;;6.80;3.90;;;11.40;65.40;;;10.05;50.37;99629.91;10342138;28;96555;-87
2022/04/19 14:37:55;;;;;;;;;;;11.40;64.60;;;10.09;49.59;99621.44;10293815;28;97149;-88
2022/04/19 14:42:58;;;;;;;5.23;4.10;;;11.50;64.30;;;10.27;49.86;99621.13;10317012;28;98318;-89
2022/04/19 14:48:01;;;;;;;6.40;4.40;;;11.60;64.40;;;10.49;49.72;99615.94;10308291;28;96420;-89
2022/04/19 14:53:04;;;;;;;7.93;4.30;;;11.80;64.40;;;10.54;48.86;99622.34;10294673;28;96847;-89
2022/04/19 14:58:07;;;;;;;5.03;3.73;;;11.90;63.80;;;11.08;49.43;99621.25;10351827;28;96528;-86
2022/04/19 15:03:10;;;;;;;7.50;4.50;;;12.30;64.80;;;11.38;48.57;99632.69;10381491;28;98670;-85
2022/04/19 15:08:13;;;;;;;7.10;4.37;;;12.70;63.50;;;11.30;49.14;99636.28;10367147;28;97122;-88
2022/04/19 15:13:18;;;;;;;7.30;4.00;;;12.80;63.20;;;10.74;50.57;99648.41;10323565;28;97036;-87
2022/04/19 15:18:22;;;;;;;6.03;4.10;;;12.30;63.80;;;10.18;52.08;99656.69;10324502;28;96383;-87
2022/04/19 15:23:25;;;;;;;7.07;4.30;;;11.90;65.80;;;9.78;53.92;99665.78;10300110;28;97000;-87
2022/04/19 15:28:31;;;;;;;9.33;5.07;;;11.40;66.70;;;9.44;55.66;99666.97;10316642;28;96710;-85
2022/04/19 15:33:35;;;;;;;6.20;4.13;;;11.10;68.20;;;9.14;56.80;99676.53;10302876;28;97464;-84
2022/04/19 15:38:38;;;;;;;7.97;5.00;;;10.80;69.20;;;8.75;58.48;99682.59;10300431;28;96876;-85
2022/04/19 15:43:43;;;;;;;9.90;6.50;;;10.40;71.20;;;8.50;59.98;99686.28;10321559;28;96577;-86
2022/04/19 15:48:46;;;;;;;8.83;6.30;;;10.10;73.30;;;8.26;61.26;99692.38;10296271;28;96746;-85
2022/04/19 15:53:49;;;;;;;7.60;5.27;;;9.90;74.70;;;7.97;62.52;99691.00;10318941;28;96518;-86
2022/04/19 15:58:52;;;;;;;10.03;6.87;;;9.60;76.80;;;7.82;63.69;99694.47;10339430;28;96319;-85
2022/04/19 16:03:56;;;;;;;9.07;6.47;;;9.40;78.00;;;7.69;64.69;99703.72;10336069;28;96506;-85
2022/04/19 16:08:58;;;;;;;8.57;6.20;;;9.30;79.20;;;7.58;65.94;99706.66;10338917;28;98175;-85
2022/04/19 16:14:02;;;;;;;6.33;5.10;;;9.20;81.30;;;7.49;66.24;99707.59;10315439;28;96386;-85
2022/04/19 16:24:26;;;;;;;9.82;6.63;;;9.00;83.90;;;7.43;66.30;99695.00;10330373;28;96591;-85
2022/04/19 16:29:30;;;;;;;8.93;5.83;;;9.00;84.80;;;7.35;66.41;99689.72;10306765;28;96602;-86
2022/04/19 16:34:33;;;;;;;7.93;6.27;;;8.90;85.20;;;7.33;67.24;99702.25;10332375;28;98284;-85
2022/04/19 16:39:36;;;;;;;8.67;5.07;;;8.90;86.30;;;7.36;66.90;99691.34;10331605;28;97003;-87
2022/04/19 16:44:39;;;;;;;7.20;4.57;;;8.90;87.20;;;7.24;65.82;99696.94;10335888;28;96723;-87
2022/04/19 16:49:42;;;;;;;7.37;4.30;;;8.80;87.10;;;7.20;65.54;99703.53;10332974;28;96583;-86
2022/04/19 16:54:44;;;;;;;7.90;4.77;;;8.70;87.10;;;7.03;65.56;99711.53;10308731;28;96603;-86
2022/04/19 16:59:47;;;;;;;7.77;4.27;;;8.60;87.20;;;6.93;66.31;99703.72;10304139;28;96643;-87
2022/04/19 17:04:51;;;;;;;8.20;5.63;;;8.50;87.80;;;6.80;66.77;99705.94;10332913;28;97560;-86
2022/04/19 17:09:55;;;;;;;11.00;6.70;;;8.40;88.60;;;6.69;67.70;99702.56;10319167;28;96685;-87
2022/04/19 17:14:58;;;;;;;10.77;6.20;;;8.30;89.90;;;6.57;68.38;99705.63;10299307;28;96474;-86
2022/04/19 17:20:02;;;;;;;7.67;5.60;;;8.20;90.20;;;6.40;68.95;99704.66;10295818;28;96601;-86
2022/04/19 17:25:06;;;;;;;9.73;6.13;;;8.10;90.90;;;6.27;69.34;99707.69;10314311;28;97098;-87
2022/04/19 17:30:10;;;;;;;10.03;6.60;;;8.00;91.50;;;6.13;69.99;99708.25;10364481;28;96720;-86
2022/04/19 17:35:13;;;;;;;8.20;5.80;;;7.80;92.00;;;6.00;70.43;99702.50;10342455;28;96507;-85
2022/04/19 17:40:16;;;;;;;8.90;6.07;;;7.70;92.60;;;5.88;70.98;99715.06;10346916;28;96637;-84
2022/04/19 17:45:22;;;;;;;9.53;6.20;;;7.60;93.60;;;5.77;71.06;99728.47;10319193;28;96566;-86
2022/04/19 18:01:09;;;;;;;12.20;8.13;;;7.20;99.90;;;5.33;72.00;99755.44;10310909;28;96604;-86
2022/04/19 18:06:12;;;;;;;10.90;7.53;;;7.10;96.70;;;5.19;72.49;99768.25;10322547;28;96619;-86
2022/04/19 18:11:15;;;;;;;10.70;7.20;;;7.00;97.20;;;5.06;72.97;99769.41;10312834;28;96768;-86
2022/04/19 18:16:19;;;;;;;9.53;6.37;;;6.80;97.50;;;4.97;73.49;99772.88;10304627;28;97537;-86
2022/04/19 18:21:22;;;;;;;11.70;8.13;;;6.70;97.00;;;4.90;73.24;99773.59;10330068;28;98818;-85
2022/04/19 18:26:25;;;;;;;17.90;10.77;;;6.70;97.10;;;4.79;72.81;99779.84;10341141;28;97272;-86
2022/04/19 18:31:29;;;;;;;17.60;11.03;;;6.60;97.70;;;4.65;73.02;99789.00;10342287;28;96556;-87
2022/04/19 18:36:32;;;;;;;16.33;9.00;;;6.50;97.90;;;4.54;73.23;99784.72;10294907;28;96376;-86
2022/04/19 18:41:35;;;;;;;15.83;10.53;;;6.40;98.00;;;4.40;73.95;99784.31;10297080;28;97100;-86
2022/04/19 18:46:38;;;;;;;19.23;9.63;;;6.20;98.80;;;4.28;73.78;99788.88;10311226;28;96638;-85
2022/04/19 18:51:41;;;;;;;14.60;9.37;;;6.10;99.20;;;4.17;74.12;99796.91;10312584;28;96693;-86
2022/04/19 18:56:44;;;;;;;15.23;10.37;;;6.00;99.20;;;4.03;74.84;99801.59;10317545;28;96743;-85
2022/04/19 19:01:47;;;;;;;11.13;7.33;;;5.90;99.20;;;3.92;75.63;99806.97;10320513;28;96712;-85
2022/04/19 19:06:50;;;;;;;10.87;7.50;;;5.80;99.40;;;3.85;76.08;99808.47;10327826;28;97408;-87
2022/04/19 19:11:53;;;;;;;13.80;8.23;;;5.70;99.90;;;3.76;75.86;99817.13;10322947;28;96543;-86
2022/04/19 19:16:56;;;;;;;10.77;7.33;;;5.60;99.90;;;3.70;76.64;99828.19;10326391;28;96532;-87
2022/04/19 19:22:00;;;;;;;9.57;6.83;;;5.50;99.90;;;3.62;76.59;99835.91;10302328;28;96632;-87
2022/04/19 19:27:04;;;;;;;8.37;5.97;;;5.40;99.90;;;3.52;77.81;99842.91;10314042;28;98868;-84
2022/04/19 19:32:08;;;;;;;8.50;5.83;;;5.30;99.90;;;3.45;78.37;99838.19;10324125;28;98443;-87
2022/04/19 19:37:18;;;;;;;16.83;9.57;;;5.20;99.90;;;3.40;78.35;99845.63;10332070;28;97245;-87
2022/04/19 19:42:21;;;;;;;17.30;10.47;;;5.20;99.90;;;3.34;78.34;99851.38;10359441;28;96687;-86
2022/04/19 19:47:24;;;;;;;16.10;10.23;;;5.10;99.90;;;3.27;78.40;99858.13;10334298;28;96470;-86
2022/04/19 19:52:27;;;;;;;14.47;7.73;;;5.00;99.90;;;3.19;78.32;99871.09;10318418;28;98932;-86
2022/04/19 19:57:30;;;;;;;15.50;7.83;;;5.00;99.90;;;3.15;78.26;99874.91;10320954;28;97445;-87
2022/04/19 20:02:34;;;;;;;19.63;8.50;;;4.90;99.90;;;3.10;78.84;99877.91;10299767;28;98582;-87
2022/04/19 20:07:37;;;;;;;14.60;7.93;;;4.90;99.90;;;3.07;78.42;99878.19;10295055;28;96491;-87
2022/04/19 20:12:40;;;;;;;16.77;8.33;;;4.90;99.90;;;3.01;78.18;99881.31;10295643;28;97560;-87
2022/04/19 20:17:46;;;;;;;20.43;9.10;;;4.80;99.90;;;2.95;78.01;99874.78;10302476;28;96570;-87
2022/04/19 20:22:50;;;;;;;20.00;8.40;;;4.80;99.90;;;2.87;78.08;99873.75;10317445;28;96710;-87
2022/04/19 20:27:53;;;;;;;13.63;6.30;;;4.70;99.90;;;2.78;78.32;99867.47;10357790;28;96362;-87
2022/04/19 20:32:56;;;;;;;15.20;7.37;;;4.60;99.90;;;2.75;79.00;99877.38;10322338;28;98722;-86
2022/04/19 20:37:59;;;;;;;22.60;10.17;;;4.60;99.90;;;2.68;79.21;99874.41;10332833;28;96613;-86
2022/04/19 20:43:02;;;;;;;23.30;11.37;;;4.50;99.90;;;2.61;79.49;99874.09;10341735;28;96561;-86
2022/04/19 20:53:27;;;;;;;;;;;4.30;99.90;;;2.42;79.37;99880.00;10322306;28;96476;-86
2022/04/19 20:58:30;;;;;;;20.00;9.50;;;4.30;99.90;;;2.31;79.34;99885.28;10308321;28;98489;-86
2022/04/19 21:03:33;;;;;;;19.63;10.13;;;4.20;99.90;;;2.21;79.25;99873.84;10335675;28;98573;-86
2022/04/19 21:08:37;;;;;;;16.10;8.60;;;4.10;99.90;;;2.15;79.15;99869.09;10331081;28;96678;-86
2022/04/19 21:13:40;;;;;;;18.20;10.13;;;4.00;99.90;;;2.04;79.59;99869.09;10321088;28;96552;-86
2022/04/19 21:18:42;;;;;;;18.73;10.07;;;3.90;99.90;;;1.98;79.59;99870.44;10292401;28;96778;-86
2022/04/19 21:23:48;;;;;;;15.23;8.17;;;3.90;99.90;;;1.93;79.48;99871.75;10294232;28;97121;-86
2022/04/19 21:28:50;;;;;;;14.03;7.67;;;3.80;99.90;;;1.85;79.75;99874.97;10302977;28;99727;-86
2022/04/19 21:33:54;;;;;;;10.47;6.90;;;3.70;99.90;;;1.78;79.91;99887.72;10297701;28;96536;-86
2022/04/19 21:38:59;;;;;;;14.63;8.50;;;3.60;99.90;;;1.74;80.19;99883.69;10330980;28;98887;-86
2022/04/19 21:44:02;;;;;;;13.80;8.23;;;3.60;99.90;;;1.74;80.85;99894.16;10312176;28;96790;-86
2022/04/19 21:49:05;;;;;;;11.80;7.33;;;3.60;99.90;;;1.76;80.96;99891.41;10307150;28;97232;-86
2022/04/19 21:54:08;;;;;;;11.00;7.23;;;3.60;99.90;;;1.68;80.96;99892.03;10375167;28;98274;-87
2022/04/19 21:59:11;;;;;;;12.77;6.93;;;3.60;99.90;;;1.69;81.05;99891.06;10339827;28;96575;-86
2022/04/19 22:04:14;;;;;;;12.53;7.43;;;3.50;99.90;;;1.67;81.34;99890.31;10312830;28;96564;-86
2022/04/19 22:09:17;;;;;;;9.50;6.27;;;3.50;99.90;;;1.61;81.22;99890.78;10291043;28;96384;-86
2022/04/19 22:14:20;;;;;;;11.70;7.23;;;3.40;99.90;;;1.59;81.75;99898.78;10292053;28;96887;-87
2022/04/19 22:19:23;;;;;;;11.90;7.67;;;3.40;99.90;;;1.56;81.91;99892.94;10325952;28;96974;-86
2022/04/19 22:24:26;;;;;;;11.37;6.30;;;3.40;99.90;;;1.56;82.40;99898.16;10307070;28;96785;-86
2022/04/19 22:29:29;;;;;;;9.70;6.23;;;3.40;99.90;;;1.53;82.47;99904.50;10291966;28;96578;-86
2022/04/19 22:34:32;;;;;;;10.43;6.33;;;3.30;99.90;;;1.48;82.31;99900.56;10313022;28;97788;-86
2022/04/19 22:39:36;;;;;;;11.00;6.77;;;3.30;99.90;;;1.47;82.47;99899.72;10311467;28;96347;-87